sensor_id;sensor_type;location;lat;lon;timestamp;pressure;altitude;pressure_sealevel;temperature;humidity
33151;BME280;19508;42.578;23.416;2023-04-05T00:00:57;93155.94;;;1.45;78.84
33151;BME280;19508;42.578;23.416;2023-04-05T00:03:23;93151.41;;;1.52;78.55
33151;BME280;19508;42.578;23.416;2023-04-05T00:05:50;93150.91;;;1.37;77.98
33151;BME280;19508;42.578;23.416;2023-04-05T00:08:15;93157.41;;;1.41;78.10
33151;BME280;19508;42.578;23.416;2023-04-05T00:10:48;93150.75;;;1.57;78.41
33151;BME280;19508;42.578;23.416;2023-04-05T00:13:14;93149.16;;;1.56;77.77
33151;BME280;19508;42.578;23.416;2023-04-05T00:15:40;93141.34;;;1.61;77.80
33151;BME280;19508;42.578;23.416;2023-04-05T00:18:05;93142.16;;;1.86;77.02
33151;BME280;19508;42.578;23.416;2023-04-05T00:20:31;93147.41;;;1.68;78.28
33151;BME280;19508;42.578;23.416;2023-04-05T00:22:58;93146.41;;;1.37;79.10
33151;BME280;19508;42.578;23.416;2023-04-05T00:25:23;93147.16;;;1.45;78.43
33151;BME280;19508;42.578;23.416;2023-04-05T00:27:49;93147.75;;;1.15;79.66
33151;BME280;19508;42.578;23.416;2023-04-05T00:30:14;93147.44;;;1.61;78.29
33151;BME280;19508;42.578;23.416;2023-04-05T00:32:49;93150.03;;;1.43;78.86
33151;BME280;19508;42.578;23.416;2023-04-05T00:35:15;93158.88;;;1.62;78.28
33151;BME280;19508;42.578;23.416;2023-04-05T00:37:41;93159.69;;;1.37;79.16
33151;BME280;19508;42.578;23.416;2023-04-05T00:40:07;93150.06;;;1.36;78.49
33151;BME280;19508;42.578;23.416;2023-04-05T00:42:33;93162.16;;;1.64;78.35
33151;BME280;19508;42.578;23.416;2023-04-05T00:44:58;93167.53;;;1.51;78.78
33151;BME280;19508;42.578;23.416;2023-04-05T00:47:23;93152.72;;;1.68;77.88
33151;BME280;19508;42.578;23.416;2023-04-05T00:49:49;93157.69;;;1.58;78.22
33151;BME280;19508;42.578;23.416;2023-04-05T00:52:16;93160.56;;;1.56;78.48
33151;BME280;19508;42.578;23.416;2023-04-05T00:54:42;93163.00;;;1.58;77.75
33151;BME280;19508;42.578;23.416;2023-04-05T00:57:08;93160.78;;;1.55;77.36
33151;BME280;19508;42.578;23.416;2023-04-05T00:59:34;93164.72;;;1.46;78.46
33151;BME280;19508;42.578;23.416;2023-04-05T01:02:00;93162.22;;;1.51;78.62
33151;BME280;19508;42.578;23.416;2023-04-05T01:04:27;93156.06;;;1.57;78.21
33151;BME280;19508;42.578;23.416;2023-04-05T01:09:55;93169.16;;;1.52;78.50
33151;BME280;19508;42.578;23.416;2023-04-05T01:12:21;93174.63;;;1.88;77.49
33151;BME280;19508;42.578;23.416;2023-04-05T01:14:53;93163.69;;;1.47;78.87
33151;BME280;19508;42.578;23.416;2023-04-05T01:17:24;93174.22;;;1.60;77.90
33151;BME280;19508;42.578;23.416;2023-04-05T01:19:55;93175.06;;;1.54;78.05
33151;BME280;19508;42.578;23.416;2023-04-05T01:30:43;93177.56;;;1.80;76.87
33151;BME280;19508;42.578;23.416;2023-04-05T01:33:23;93169.94;;;1.59;76.91
33151;BME280;19508;42.578;23.416;2023-04-05T01:36:00;93172.72;;;1.39;78.28
33151;BME280;19508;42.578;23.416;2023-04-05T01:38:27;93174.38;;;1.65;77.47
33151;BME280;19508;42.578;23.416;2023-04-05T01:40:54;93169.84;;;1.72;77.02
33151;BME280;19508;42.578;23.416;2023-04-05T01:43:20;93172.38;;;1.60;76.98
33151;BME280;19508;42.578;23.416;2023-04-05T01:45:46;93174.47;;;1.83;76.89
33151;BME280;19508;42.578;23.416;2023-04-05T01:48:12;93174.91;;;1.80;76.50
33151;BME280;19508;42.578;23.416;2023-04-05T01:50:38;93179.47;;;1.98;75.69
33151;BME280;19508;42.578;23.416;2023-04-05T01:53:03;93180.63;;;2.02;74.97
33151;BME280;19508;42.578;23.416;2023-04-05T01:55:29;93179.38;;;2.05;75.07
33151;BME280;19508;42.578;23.416;2023-04-05T01:57:56;93179.88;;;1.95;74.93
33151;BME280;19508;42.578;23.416;2023-04-05T02:00:21;93186.75;;;2.03;74.19
33151;BME280;19508;42.578;23.416;2023-04-05T02:02:47;93188.19;;;2.05;74.44
33151;BME280;19508;42.578;23.416;2023-04-05T02:05:13;93191.03;;;2.04;75.36
33151;BME280;19508;42.578;23.416;2023-04-05T02:07:38;93183.28;;;2.02;74.92
33151;BME280;19508;42.578;23.416;2023-04-05T02:10:04;93176.44;;;1.63;75.92
33151;BME280;19508;42.578;23.416;2023-04-05T02:12:30;93179.94;;;1.88;76.04
33151;BME280;19508;42.578;23.416;2023-04-05T02:14:55;93169.78;;;2.04;75.00
33151;BME280;19508;42.578;23.416;2023-04-05T02:17:21;93184.47;;;1.81;75.09
33151;BME280;19508;42.578;23.416;2023-04-05T02:19:47;93184.00;;;1.91;75.85
33151;BME280;19508;42.578;23.416;2023-04-05T02:22:14;93198.22;;;1.96;75.77
33151;BME280;19508;42.578;23.416;2023-04-05T02:24:39;93188.50;;;1.90;75.60
33151;BME280;19508;42.578;23.416;2023-04-05T02:27:05;93192.03;;;1.78;76.34
33151;BME280;19508;42.578;23.416;2023-04-05T02:29:31;93186.91;;;1.83;75.60
33151;BME280;19508;42.578;23.416;2023-04-05T02:31:57;93187.56;;;2.03;74.65
33151;BME280;19508;42.578;23.416;2023-04-05T02:34:22;93190.88;;;1.98;74.62
33151;BME280;19508;42.578;23.416;2023-04-05T02:36:49;93173.47;;;2.03;74.73
33151;BME280;19508;42.578;23.416;2023-04-05T02:39:15;93173.78;;;2.13;74.34
33151;BME280;19508;42.578;23.416;2023-04-05T02:41:41;93194.09;;;2.07;74.76
33151;BME280;19508;42.578;23.416;2023-04-05T02:44:06;93186.38;;;1.99;73.86
33151;BME280;19508;42.578;23.416;2023-04-05T02:46:31;93176.84;;;1.91;74.67
33151;BME280;19508;42.578;23.416;2023-04-05T02:48:57;93180.84;;;1.76;74.65
33151;BME280;19508;42.578;23.416;2023-04-05T02:51:22;93168.47;;;1.88;75.07
33151;BME280;19508;42.578;23.416;2023-04-05T02:53:48;93178.31;;;2.12;74.07
33151;BME280;19508;42.578;23.416;2023-04-05T02:56:13;93169.09;;;2.15;73.99
33151;BME280;19508;42.578;23.416;2023-04-05T02:58:39;93162.91;;;1.96;73.87
33151;BME280;19508;42.578;23.416;2023-04-05T03:01:05;93167.53;;;2.07;74.47
33151;BME280;19508;42.578;23.416;2023-04-05T03:03:32;93172.66;;;2.02;74.17
33151;BME280;19508;42.578;23.416;2023-04-05T03:06:03;93167.78;;;2.24;73.66
33151;BME280;19508;42.578;23.416;2023-04-05T03:08:39;93168.38;;;2.26;73.71
33151;BME280;19508;42.578;23.416;2023-04-05T03:11:09;93164.00;;;1.88;74.29
33151;BME280;19508;42.578;23.416;2023-04-05T03:13:34;93165.50;;;2.03;74.02
33151;BME280;19508;42.578;23.416;2023-04-05T03:16:01;93164.94;;;2.01;74.31
33151;BME280;19508;42.578;23.416;2023-04-05T03:18:26;93168.63;;;2.00;74.37
33151;BME280;19508;42.578;23.416;2023-04-05T03:20:54;93159.84;;;1.99;74.37
33151;BME280;19508;42.578;23.416;2023-04-05T03:23:23;93161.28;;;2.20;74.32
33151;BME280;19508;42.578;23.416;2023-04-05T03:25:59;93165.63;;;2.14;73.71
33151;BME280;19508;42.578;23.416;2023-04-05T03:28:26;93167.34;;;2.27;73.68
33151;BME280;19508;42.578;23.416;2023-04-05T03:30:52;93176.22;;;2.39;73.71
33151;BME280;19508;42.578;23.416;2023-04-05T03:33:18;93170.72;;;1.91;74.15
33151;BME280;19508;42.578;23.416;2023-04-05T03:35:44;93172.78;;;2.14;73.75
33151;BME280;19508;42.578;23.416;2023-04-05T03:38:09;93175.59;;;2.19;73.67
33151;BME280;19508;42.578;23.416;2023-04-05T03:40:35;93169.28;;;2.13;73.80
33151;BME280;19508;42.578;23.416;2023-04-05T03:43:00;93172.97;;;2.37;73.50
33151;BME280;19508;42.578;23.416;2023-04-05T03:45:26;93181.56;;;2.14;73.71
33151;BME280;19508;42.578;23.416;2023-04-05T03:47:53;93180.47;;;2.22;73.84
33151;BME280;19508;42.578;23.416;2023-04-05T03:50:19;93189.19;;;2.04;74.80
33151;BME280;19508;42.578;23.416;2023-04-05T03:52:45;93182.53;;;1.95;75.21
33151;BME280;19508;42.578;23.416;2023-04-05T03:55:10;93191.41;;;1.82;76.53
33151;BME280;19508;42.578;23.416;2023-04-05T03:57:38;93189.59;;;2.08;75.99
33151;BME280;19508;42.578;23.416;2023-04-05T04:00:04;93191.56;;;2.12;75.93
33151;BME280;19508;42.578;23.416;2023-04-05T04:02:45;93193.22;;;1.57;77.64
33151;BME280;19508;42.578;23.416;2023-04-05T04:05:11;93194.78;;;1.71;78.13
33151;BME280;19508;42.578;23.416;2023-04-05T04:07:37;93198.44;;;1.70;77.95
33151;BME280;19508;42.578;23.416;2023-04-05T04:10:06;93194.28;;;1.49;78.79
33151;BME280;19508;42.578;23.416;2023-04-05T04:12:32;93187.72;;;1.52;78.70
33151;BME280;19508;42.578;23.416;2023-04-05T04:14:58;93189.34;;;1.53;79.13
33151;BME280;19508;42.578;23.416;2023-04-05T04:17:32;93198.16;;;1.78;78.90
33151;BME280;19508;42.578;23.416;2023-04-05T04:19:58;93199.19;;;1.77;78.40
33151;BME280;19508;42.578;23.416;2023-04-05T04:22:24;93206.56;;;1.75;79.26
33151;BME280;19508;42.578;23.416;2023-04-05T04:25:09;93204.34;;;1.72;79.19
33151;BME280;19508;42.578;23.416;2023-04-05T04:27:43;93206.53;;;1.82;79.27
33151;BME280;19508;42.578;23.416;2023-04-05T04:30:12;93205.19;;;1.66;79.22
33151;BME280;19508;42.578;23.416;2023-04-05T04:32:38;93204.91;;;1.81;79.64
33151;BME280;19508;42.578;23.416;2023-04-05T04:35:18;93204.34;;;1.72;80.00
33151;BME280;19508;42.578;23.416;2023-04-05T04:37:59;93207.22;;;1.95;79.21
33151;BME280;19508;42.578;23.416;2023-04-05T04:40:30;93205.47;;;1.89;79.31
33151;BME280;19508;42.578;23.416;2023-04-05T04:43:07;93201.59;;;1.54;80.64
33151;BME280;19508;42.578;23.416;2023-04-05T04:45:34;93201.81;;;1.52;80.92
33151;BME280;19508;42.578;23.416;2023-04-05T04:48:02;93208.81;;;1.47;81.28
33151;BME280;19508;42.578;23.416;2023-04-05T04:50:29;93210.00;;;1.82;79.64
33151;BME280;19508;42.578;23.416;2023-04-05T04:52:57;93211.69;;;2.02;79.15
33151;BME280;19508;42.578;23.416;2023-04-05T04:55:22;93209.75;;;1.90;79.03
33151;BME280;19508;42.578;23.416;2023-04-05T04:57:50;93206.75;;;2.30;78.41
33151;BME280;19508;42.578;23.416;2023-04-05T05:00:16;93214.28;;;2.08;78.38
33151;BME280;19508;42.578;23.416;2023-04-05T05:02:43;93223.56;;;2.49;76.73
33151;BME280;19508;42.578;23.416;2023-04-05T05:05:09;93219.50;;;2.65;75.62
33151;BME280;19508;42.578;23.416;2023-04-05T05:07:36;93216.19;;;2.51;76.05
33151;BME280;19508;42.578;23.416;2023-04-05T05:10:02;93204.53;;;2.27;76.16
33151;BME280;19508;42.578;23.416;2023-04-05T05:12:28;93229.25;;;2.52;75.30
33151;BME280;19508;42.578;23.416;2023-04-05T05:14:55;93215.16;;;2.52;73.74
33151;BME280;19508;42.578;23.416;2023-04-05T05:17:21;93222.94;;;2.47;71.84
33151;BME280;19508;42.578;23.416;2023-04-05T05:19:47;93217.75;;;2.09;70.33
33151;BME280;19508;42.578;23.416;2023-04-05T05:22:13;93219.34;;;2.16;72.45
33151;BME280;19508;42.578;23.416;2023-04-05T05:24:38;93206.38;;;2.02;72.91
33151;BME280;19508;42.578;23.416;2023-04-05T05:27:03;93225.28;;;2.37;72.95
33151;BME280;19508;42.578;23.416;2023-04-05T05:29:29;93216.53;;;2.54;71.61
33151;BME280;19508;42.578;23.416;2023-04-05T05:31:54;93228.25;;;2.90;71.50
33151;BME280;19508;42.578;23.416;2023-04-05T05:34:20;93213.50;;;2.94;70.49
33151;BME280;19508;42.578;23.416;2023-04-05T05:36:46;93231.00;;;2.83;70.33
33151;BME280;19508;42.578;23.416;2023-04-05T05:39:11;93231.88;;;2.96;70.18
33151;BME280;19508;42.578;23.416;2023-04-05T05:41:37;93230.09;;;2.90;70.44
33151;BME280;19508;42.578;23.416;2023-04-05T05:44:02;93224.97;;;2.51;72.00
33151;BME280;19508;42.578;23.416;2023-04-05T05:46:28;93215.22;;;2.64;71.37
33151;BME280;19508;42.578;23.416;2023-04-05T05:48:53;93220.13;;;3.03;70.60
33151;BME280;19508;42.578;23.416;2023-04-05T05:51:18;93209.50;;;2.67;70.84
33151;BME280;19508;42.578;23.416;2023-04-05T05:53:44;93227.69;;;3.25;70.07
33151;BME280;19508;42.578;23.416;2023-04-05T05:56:11;93220.00;;;3.17;68.66
33151;BME280;19508;42.578;23.416;2023-04-05T05:58:37;93235.50;;;3.20;69.16
33151;BME280;19508;42.578;23.416;2023-04-05T06:01:05;93228.91;;;3.22;68.57
33151;BME280;19508;42.578;23.416;2023-04-05T06:03:30;93231.94;;;3.07;70.18
33151;BME280;19508;42.578;23.416;2023-04-05T06:05:57;93240.38;;;3.23;70.37
33151;BME280;19508;42.578;23.416;2023-04-05T06:08:24;93237.88;;;3.28;69.65
33151;BME280;19508;42.578;23.416;2023-04-05T06:10:52;93233.78;;;3.07;69.86
33151;BME280;19508;42.578;23.416;2023-04-05T06:13:18;93228.09;;;3.22;68.51
33151;BME280;19508;42.578;23.416;2023-04-05T06:15:45;93237.22;;;3.62;67.44
33151;BME280;19508;42.578;23.416;2023-04-05T06:18:11;93239.25;;;3.79;67.35
33151;BME280;19508;42.578;23.416;2023-04-05T06:20:36;93237.44;;;3.91;65.65
33151;BME280;19508;42.578;23.416;2023-04-05T06:23:08;93232.09;;;4.21;66.45
33151;BME280;19508;42.578;23.416;2023-04-05T06:25:34;93240.00;;;3.86;65.36
33151;BME280;19508;42.578;23.416;2023-04-05T06:28:02;93231.91;;;3.62;66.04
33151;BME280;19508;42.578;23.416;2023-04-05T06:30:27;93231.16;;;4.27;64.36
33151;BME280;19508;42.578;23.416;2023-04-05T06:32:52;93233.47;;;4.23;62.01
33151;BME280;19508;42.578;23.416;2023-04-05T06:35:19;93241.19;;;4.02;63.78
33151;BME280;19508;42.578;23.416;2023-04-05T06:37:45;93238.28;;;4.45;64.10
33151;BME280;19508;42.578;23.416;2023-04-05T06:40:11;93227.56;;;3.80;64.31
33151;BME280;19508;42.578;23.416;2023-04-05T06:42:37;93234.13;;;4.72;62.66
33151;BME280;19508;42.578;23.416;2023-04-05T06:45:04;93233.78;;;4.80;62.04
33151;BME280;19508;42.578;23.416;2023-04-05T06:47:33;93231.56;;;4.66;62.52
33151;BME280;19508;42.578;23.416;2023-04-05T06:49:59;93235.75;;;4.73;60.71
33151;BME280;19508;42.578;23.416;2023-04-05T06:52:25;93247.69;;;4.82;61.81
33151;BME280;19508;42.578;23.416;2023-04-05T06:54:50;93253.22;;;5.28;61.78
33151;BME280;19508;42.578;23.416;2023-04-05T06:57:16;93262.41;;;4.97;60.99
33151;BME280;19508;42.578;23.416;2023-04-05T06:59:41;93249.72;;;5.27;59.26
33151;BME280;19508;42.578;23.416;2023-04-05T07:02:06;93259.41;;;5.05;60.84
33151;BME280;19508;42.578;23.416;2023-04-05T07:04:32;93265.63;;;5.34;58.29
33151;BME280;19508;42.578;23.416;2023-04-05T07:07:01;93259.88;;;5.54;59.01
33151;BME280;19508;42.578;23.416;2023-04-05T07:09:27;93259.16;;;5.18;59.37
33151;BME280;19508;42.578;23.416;2023-04-05T07:11:55;93258.75;;;5.38;57.37
33151;BME280;19508;42.578;23.416;2023-04-05T07:14:21;93268.09;;;5.24;59.71
33151;BME280;19508;42.578;23.416;2023-04-05T07:16:47;93267.06;;;5.13;59.80
33151;BME280;19508;42.578;23.416;2023-04-05T07:19:13;93271.31;;;5.26;59.35
33151;BME280;19508;42.578;23.416;2023-04-05T07:21:38;93270.78;;;4.89;59.04
33151;BME280;19508;42.578;23.416;2023-04-05T07:24:04;93269.47;;;4.44;59.68
33151;BME280;19508;42.578;23.416;2023-04-05T07:26:30;93277.94;;;4.76;59.36
33151;BME280;19508;42.578;23.416;2023-04-05T07:28:59;93280.84;;;4.63;59.18
33151;BME280;19508;42.578;23.416;2023-04-05T07:31:24;93293.00;;;4.59;59.01
33151;BME280;19508;42.578;23.416;2023-04-05T07:33:50;93289.06;;;4.73;59.88
33151;BME280;19508;42.578;23.416;2023-04-05T07:36:15;93288.97;;;5.15;58.33
33151;BME280;19508;42.578;23.416;2023-04-05T07:38:40;93291.84;;;5.49;57.71
33151;BME280;19508;42.578;23.416;2023-04-05T07:41:06;93284.72;;;5.54;57.86
33151;BME280;19508;42.578;23.416;2023-04-05T07:43:31;93288.31;;;5.60;57.89
33151;BME280;19508;42.578;23.416;2023-04-05T07:46:01;93289.31;;;5.94;57.10
33151;BME280;19508;42.578;23.416;2023-04-05T07:48:27;93290.09;;;5.43;57.90
33151;BME280;19508;42.578;23.416;2023-04-05T07:50:53;93294.41;;;5.20;58.11
33151;BME280;19508;42.578;23.416;2023-04-05T07:53:19;93294.56;;;5.14;57.58
33151;BME280;19508;42.578;23.416;2023-04-05T07:55:44;93287.44;;;5.19;57.34
33151;BME280;19508;42.578;23.416;2023-04-05T07:58:10;93296.19;;;5.15;57.04
33151;BME280;19508;42.578;23.416;2023-04-05T08:00:36;93303.81;;;4.99;57.83
33151;BME280;19508;42.578;23.416;2023-04-05T08:03:02;93307.31;;;5.00;58.97
33151;BME280;19508;42.578;23.416;2023-04-05T08:05:28;93295.59;;;5.24;57.56
33151;BME280;19508;42.578;23.416;2023-04-05T08:07:54;93314.38;;;5.06;59.20
33151;BME280;19508;42.578;23.416;2023-04-05T08:10:22;93315.44;;;5.05;60.08
33151;BME280;19508;42.578;23.416;2023-04-05T08:12:47;93317.63;;;5.20;57.55
33151;BME280;19508;42.578;23.416;2023-04-05T08:15:13;93306.59;;;5.28;58.57
33151;BME280;19508;42.578;23.416;2023-04-05T08:17:38;93314.16;;;4.96;58.03
33151;BME280;19508;42.578;23.416;2023-04-05T08:20:04;93320.19;;;5.15;58.98
33151;BME280;19508;42.578;23.416;2023-04-05T08:22:30;93336.28;;;4.73;58.90
33151;BME280;19508;42.578;23.416;2023-04-05T08:24:55;93322.06;;;5.14;59.40
33151;BME280;19508;42.578;23.416;2023-04-05T08:27:21;93327.84;;;4.88;58.45
33151;BME280;19508;42.578;23.416;2023-04-05T08:29:46;93327.13;;;5.04;58.65
33151;BME280;19508;42.578;23.416;2023-04-05T08:32:11;93329.69;;;4.99;58.68
33151;BME280;19508;42.578;23.416;2023-04-05T08:34:37;93322.50;;;4.34;60.41
33151;BME280;19508;42.578;23.416;2023-04-05T08:37:02;93335.47;;;4.72;60.82
33151;BME280;19508;42.578;23.416;2023-04-05T08:39:27;93324.09;;;4.65;60.01
33151;BME280;19508;42.578;23.416;2023-04-05T08:42:10;93342.91;;;4.94;58.72
33151;BME280;19508;42.578;23.416;2023-04-05T08:44:39;93334.25;;;4.45;60.00
33151;BME280;19508;42.578;23.416;2023-04-05T08:47:07;93342.00;;;4.46;60.09
33151;BME280;19508;42.578;23.416;2023-04-05T08:49:41;93346.03;;;4.79;59.66
33151;BME280;19508;42.578;23.416;2023-04-05T08:52:07;93349.94;;;4.35;60.16
33151;BME280;19508;42.578;23.416;2023-04-05T08:54:32;93347.34;;;4.16;61.86
33151;BME280;19508;42.578;23.416;2023-04-05T08:56:58;93349.94;;;4.65;60.25
33151;BME280;19508;42.578;23.416;2023-04-05T08:59:24;93349.78;;;4.48;59.89
33151;BME280;19508;42.578;23.416;2023-04-05T09:01:50;93350.13;;;5.05;60.00
33151;BME280;19508;42.578;23.416;2023-04-05T09:04:20;93354.53;;;5.11;59.00
33151;BME280;19508;42.578;23.416;2023-04-05T09:06:49;93352.09;;;4.98;58.20
33151;BME280;19508;42.578;23.416;2023-04-05T09:09:15;93353.91;;;4.86;59.90
33151;BME280;19508;42.578;23.416;2023-04-05T09:11:42;93357.06;;;4.94;58.72
33151;BME280;19508;42.578;23.416;2023-04-05T09:14:08;93352.56;;;5.42;58.25
33151;BME280;19508;42.578;23.416;2023-04-05T09:16:38;93349.53;;;4.91;58.84
33151;BME280;19508;42.578;23.416;2023-04-05T09:19:04;93356.47;;;4.80;60.32
33151;BME280;19508;42.578;23.416;2023-04-05T09:21:30;93366.66;;;4.72;59.27
33151;BME280;19508;42.578;23.416;2023-04-05T09:24:29;93359.28;;;5.21;57.94
33151;BME280;19508;42.578;23.416;2023-04-05T09:29:34;93362.41;;;5.29;57.79
33151;BME280;19508;42.578;23.416;2023-04-05T09:32:01;93356.59;;;5.68;57.34
33151;BME280;19508;42.578;23.416;2023-04-05T09:34:29;93352.44;;;5.60;58.00
33151;BME280;19508;42.578;23.416;2023-04-05T09:36:55;93354.78;;;5.21;59.32
33151;BME280;19508;42.578;23.416;2023-04-05T09:39:29;93342.75;;;5.94;58.38
33151;BME280;19508;42.578;23.416;2023-04-05T09:42:11;93355.06;;;6.35;57.60
33151;BME280;19508;42.578;23.416;2023-04-05T09:47:17;93357.75;;;5.72;57.29
33151;BME280;19508;42.578;23.416;2023-04-05T09:49:43;93352.84;;;5.80;59.00
33151;BME280;19508;42.578;23.416;2023-04-05T09:54:47;93343.31;;;5.96;57.86
33151;BME280;19508;42.578;23.416;2023-04-05T09:57:15;93356.78;;;5.89;58.69
33151;BME280;19508;42.578;23.416;2023-04-05T09:59:41;93345.88;;;6.03;57.23
33151;BME280;19508;42.578;23.416;2023-04-05T10:02:06;93355.63;;;5.97;57.12
33151;BME280;19508;42.578;23.416;2023-04-05T10:04:44;93351.47;;;6.30;56.92
33151;BME280;19508;42.578;23.416;2023-04-05T10:07:19;93349.03;;;6.00;57.44
33151;BME280;19508;42.578;23.416;2023-04-05T10:09:46;93353.22;;;5.84;57.66
33151;BME280;19508;42.578;23.416;2023-04-05T10:12:18;93351.97;;;5.16;60.24
33151;BME280;19508;42.578;23.416;2023-04-05T10:14:45;93357.69;;;5.31;59.77
33151;BME280;19508;42.578;23.416;2023-04-05T10:25:12;93353.34;;;5.54;58.88
33151;BME280;19508;42.578;23.416;2023-04-05T10:28:09;93364.38;;;4.87;58.77
33151;BME280;19508;42.578;23.416;2023-04-05T10:30:39;93369.63;;;5.17;58.79
33151;BME280;19508;42.578;23.416;2023-04-05T10:33:15;93367.06;;;5.22;58.70
33151;BME280;19508;42.578;23.416;2023-04-05T10:36:06;93365.44;;;5.09;58.92
33151;BME280;19508;42.578;23.416;2023-04-05T10:41:15;93372.84;;;4.96;58.92
33151;BME280;19508;42.578;23.416;2023-04-05T10:43:40;93362.19;;;5.43;58.36
33151;BME280;19508;42.578;23.416;2023-04-05T10:46:07;93372.03;;;5.54;57.17
33151;BME280;19508;42.578;23.416;2023-04-05T10:51:32;93377.50;;;5.12;57.33
33151;BME280;19508;42.578;23.416;2023-04-05T10:53:59;93371.94;;;5.49;57.08
33151;BME280;19508;42.578;23.416;2023-04-05T10:56:25;93369.84;;;5.74;55.75
33151;BME280;19508;42.578;23.416;2023-04-05T10:58:52;93370.44;;;5.64;55.87
33151;BME280;19508;42.578;23.416;2023-04-05T11:01:20;93372.41;;;5.46;56.26
33151;BME280;19508;42.578;23.416;2023-04-05T11:03:48;93374.97;;;5.52;56.35
33151;BME280;19508;42.578;23.416;2023-04-05T11:06:23;93382.59;;;5.02;56.67
33151;BME280;19508;42.578;23.416;2023-04-05T11:11:38;93372.75;;;5.26;56.96
33151;BME280;19508;42.578;23.416;2023-04-05T11:16:48;93375.16;;;5.04;56.52
33151;BME280;19508;42.578;23.416;2023-04-05T11:19:17;93381.56;;;5.26;57.38
33151;BME280;19508;42.578;23.416;2023-04-05T11:21:43;93375.06;;;5.69;56.82
33151;BME280;19508;42.578;23.416;2023-04-05T11:24:13;93372.16;;;5.35;57.26
33151;BME280;19508;42.578;23.416;2023-04-05T11:29:07;93392.47;;;5.36;55.99
33151;BME280;19508;42.578;23.416;2023-04-05T11:31:32;93386.34;;;5.24;55.93
33151;BME280;19508;42.578;23.416;2023-04-05T11:34:00;93378.44;;;5.76;56.36
33151;BME280;19508;42.578;23.416;2023-04-05T11:36:46;93377.41;;;5.65;55.75
33151;BME280;19508;42.578;23.416;2023-04-05T11:44:13;93385.28;;;5.14;56.85
33151;BME280;19508;42.578;23.416;2023-04-05T11:46:44;93392.53;;;4.95;57.08
33151;BME280;19508;42.578;23.416;2023-04-05T11:49:11;93387.59;;;5.10;57.02
33151;BME280;19508;42.578;23.416;2023-04-05T11:51:39;93386.25;;;4.77;58.56
33151;BME280;19508;42.578;23.416;2023-04-05T11:54:07;93395.13;;;4.60;57.66
33151;BME280;19508;42.578;23.416;2023-04-05T11:56:32;93394.31;;;4.59;58.04
33151;BME280;19508;42.578;23.416;2023-04-05T11:58:58;93400.16;;;4.38;58.96
33151;BME280;19508;42.578;23.416;2023-04-05T12:01:24;93390.50;;;4.55;59.02
33151;BME280;19508;42.578;23.416;2023-04-05T12:03:53;93388.25;;;4.52;59.15
33151;BME280;19508;42.578;23.416;2023-04-05T12:06:24;93389.06;;;4.94;59.68
33151;BME280;19508;42.578;23.416;2023-04-05T12:08:50;93386.91;;;5.15;58.75
33151;BME280;19508;42.578;23.416;2023-04-05T12:11:28;93387.28;;;5.42;57.76
33151;BME280;19508;42.578;23.416;2023-04-05T12:13:59;93389.91;;;5.06;58.25
33151;BME280;19508;42.578;23.416;2023-04-05T12:16:26;93392.81;;;5.05;56.80
33151;BME280;19508;42.578;23.416;2023-04-05T12:18:58;93391.63;;;5.01;57.30
33151;BME280;19508;42.578;23.416;2023-04-05T12:21:25;93392.78;;;4.81;58.41
33151;BME280;19508;42.578;23.416;2023-04-05T12:23:52;93387.13;;;5.01;58.08
33151;BME280;19508;42.578;23.416;2023-04-05T12:26:19;93383.28;;;4.97;58.39
33151;BME280;19508;42.578;23.416;2023-04-05T12:28:56;93391.44;;;5.14;58.20
33151;BME280;19508;42.578;23.416;2023-04-05T12:33:59;93381.22;;;5.46;56.70
33151;BME280;19508;42.578;23.416;2023-04-05T12:36:26;93382.38;;;5.62;56.43
33151;BME280;19508;42.578;23.416;2023-04-05T12:38:53;93377.13;;;5.79;56.30
33151;BME280;19508;42.578;23.416;2023-04-05T12:41:32;93378.31;;;5.83;55.69
33151;BME280;19508;42.578;23.416;2023-04-05T12:43:58;93381.88;;;6.12;55.75
33151;BME280;19508;42.578;23.416;2023-04-05T12:49:05;93375.16;;;6.38;54.84
33151;BME280;19508;42.578;23.416;2023-04-05T12:51:31;93369.56;;;6.11;55.17
33151;BME280;19508;42.578;23.416;2023-04-05T12:54:00;93370.81;;;6.48;55.39
33151;BME280;19508;42.578;23.416;2023-04-05T12:56:28;93373.75;;;6.64;55.46
33151;BME280;19508;42.578;23.416;2023-04-05T12:58:54;93380.00;;;6.53;55.23
33151;BME280;19508;42.578;23.416;2023-04-05T13:01:20;93378.56;;;6.33;55.31
33151;BME280;19508;42.578;23.416;2023-04-05T13:03:46;93375.88;;;6.33;54.40
33151;BME280;19508;42.578;23.416;2023-04-05T13:06:11;93373.41;;;6.03;55.61
33151;BME280;19508;42.578;23.416;2023-04-05T13:08:37;93375.38;;;6.08;56.64
33151;BME280;19508;42.578;23.416;2023-04-05T13:11:02;93381.91;;;6.69;55.26
33151;BME280;19508;42.578;23.416;2023-04-05T13:13:28;93375.66;;;6.23;54.22
33151;BME280;19508;42.578;23.416;2023-04-05T13:15:53;93381.59;;;6.25;55.11
33151;BME280;19508;42.578;23.416;2023-04-05T13:18:18;93400.63;;;5.65;57.50
33151;BME280;19508;42.578;23.416;2023-04-05T13:20:45;93389.25;;;6.33;56.48
33151;BME280;19508;42.578;23.416;2023-04-05T13:23:11;93388.44;;;6.33;54.63
33151;BME280;19508;42.578;23.416;2023-04-05T13:25:41;93397.66;;;6.25;55.66
33151;BME280;19508;42.578;23.416;2023-04-05T13:28:07;93395.50;;;5.99;55.53
33151;BME280;19508;42.578;23.416;2023-04-05T13:30:33;93395.63;;;5.57;57.34
33151;BME280;19508;42.578;23.416;2023-04-05T13:32:58;93403.59;;;5.80;57.01
33151;BME280;19508;42.578;23.416;2023-04-05T13:35:23;93387.63;;;5.92;56.01
33151;BME280;19508;42.578;23.416;2023-04-05T13:37:49;93392.56;;;5.88;55.47
33151;BME280;19508;42.578;23.416;2023-04-05T13:40:15;93397.00;;;5.36;56.16
33151;BME280;19508;42.578;23.416;2023-04-05T13:42:43;93407.69;;;5.24;56.56
33151;BME280;19508;42.578;23.416;2023-04-05T13:45:09;93400.44;;;4.90;58.19
33151;BME280;19508;42.578;23.416;2023-04-05T13:47:34;93399.78;;;4.64;58.19
33151;BME280;19508;42.578;23.416;2023-04-05T13:50:00;93404.91;;;4.66;59.84
33151;BME280;19508;42.578;23.416;2023-04-05T13:52:27;93384.63;;;4.76;58.64